Accueil
METAR-TAF:

METAR-TAF

Aéroports :

Aéroport international Nnamdi Azikiwe

Abuja, Nigeria

latitude: 9-00-24N, longitude: 7-15-47E, altitude: 342 m

Observation

Le bulletin a été fait il y a 58 minutes, à 14:00 UTC
Vent 3 kt de sud/sud-est
Température 37°C
Humidité 40%
Pression 1007 hPa
Visibilité 10 km ou plus
Quelques nuages à une hauteur de 1600 ft

METAR: DNAA 101400Z 15003KT 9999 FEW016 37/21 Q1007 NOSIG

Heure: 15:58 (14:58 UTC)

Prévision

Le bulletin a été fait il y a 3 heures et 58 minutes, à 11:00 UTC
Prévision valable du 10 à 12 UTC au 11 à 18 UTC
Vent 7 kt de sud-ouest
Visibilité 10 km ou plus
Nuages épars à une hauteur de 1400 ft
Probabilité 30% :
Temporairement
du 10 à 15 UTC au 10 à 20 UTC
Quelques nuages à une hauteur de 2000 ft, Cumulonimbus.
orage

TAF: DNAA 101100Z 1012/1118 23007KT 9999 SCT014 PROB30 TEMPO 1015/1020 TS FEW020CB

Observations et prévisions météorologiques de plus de 4000 aéroports (messages METAR et TAF).

Les stations disponibles sont représentées par des disques jaunes et rouges sur la carte.

Passer la souris dessus pour voir le nom de la station.

Cliquer dessus pour voir les observations et prévisions météorologiques.

Pour changer de carte: cliquez sur les boutons verts avec une croix noire pour zoomer, sur le bouton vert avec un tiret pour effectuer un zoom arrière, ou sur les flèches vertes pour les cartes adjacentes.


METAR-TAF: